createdAt,value
2018-07-15T00:00:59.363Z,15.40
2018-07-15T00:03:26.916Z,15.30
2018-07-15T00:05:54.516Z,15.30
2018-07-15T00:08:22.051Z,15.30
2018-07-15T00:10:49.627Z,15.20
2018-07-15T00:13:17.187Z,15.20
2018-07-15T00:15:44.884Z,15.20
2018-07-15T00:18:12.417Z,15.20
2018-07-15T00:20:40.006Z,15.30
2018-07-15T00:25:35.343Z,15.20
2018-07-15T00:28:03.379Z,15.10
2018-07-15T00:30:31.009Z,15.10
2018-07-15T00:32:58.589Z,15.00
2018-07-15T00:35:26.303Z,15.00
2018-07-15T00:37:53.907Z,15.00
2018-07-15T00:40:21.523Z,15.00
2018-07-15T00:42:49.124Z,14.90
2018-07-15T00:45:16.744Z,14.90
2018-07-15T00:47:44.278Z,14.80
2018-07-15T00:50:11.884Z,14.80
2018-07-15T00:52:39.479Z,14.80
2018-07-15T00:55:07.142Z,14.80
2018-07-15T00:57:34.767Z,14.70
2018-07-15T01:00:02.401Z,14.70
2018-07-15T01:04:57.490Z,14.70
2018-07-15T01:07:27.078Z,14.60
2018-07-15T01:09:54.754Z,14.60
2018-07-15T01:12:22.350Z,14.60
2018-07-15T01:14:49.924Z,14.60
2018-07-15T01:17:17.548Z,14.60
2018-07-15T01:19:45.244Z,14.50
2018-07-15T01:22:12.823Z,14.50
2018-07-15T01:24:40.475Z,14.50
2018-07-15T01:27:08.064Z,14.50
2018-07-15T01:29:35.684Z,14.50
2018-07-15T01:32:03.699Z,14.50
2018-07-15T01:34:31.264Z,14.50
2018-07-15T01:36:59.016Z,14.50
2018-07-15T01:39:26.570Z,14.40
2018-07-15T01:44:21.675Z,14.40
2018-07-15T01:49:16.831Z,14.30
2018-07-15T01:51:44.464Z,14.30
2018-07-15T01:54:12.004Z,14.20
2018-07-15T01:56:39.581Z,14.20
2018-07-15T02:01:34.771Z,14.10
2018-07-15T02:04:02.316Z,14.10
2018-07-15T02:06:29.896Z,14.20
2018-07-15T02:08:57.611Z,14.20
2018-07-15T02:11:25.364Z,14.20
2018-07-15T02:13:52.941Z,14.10
2018-07-15T02:16:20.523Z,14.10
2018-07-15T02:18:48.088Z,14.00
2018-07-15T02:21:15.653Z,14.00
2018-07-15T02:23:43.215Z,13.90
2018-07-15T02:26:10.790Z,13.90
2018-07-15T02:28:38.384Z,13.80
2018-07-15T02:36:01.036Z,13.80
2018-07-15T02:38:28.580Z,13.80
2018-07-15T02:40:56.172Z,13.80
2018-07-15T02:43:23.975Z,13.70
2018-07-15T02:45:51.517Z,13.70
2018-07-15T02:48:19.094Z,13.70
2018-07-15T02:50:46.795Z,13.80
2018-07-15T02:53:14.343Z,13.70
2018-07-15T02:55:41.890Z,13.70
2018-07-15T02:58:09.462Z,13.80
2018-07-15T03:00:37.030Z,13.70
2018-07-15T03:03:04.603Z,13.70
2018-07-15T03:05:32.160Z,13.70
2018-07-15T03:07:59.749Z,13.60
2018-07-15T03:10:27.321Z,13.50
2018-07-15T03:12:54.911Z,13.50
2018-07-15T03:15:22.462Z,13.50
2018-07-15T03:17:50.054Z,13.40
2018-07-15T03:20:17.629Z,13.40
2018-07-15T03:22:45.379Z,13.40
2018-07-15T03:25:12.930Z,13.40
2018-07-15T03:27:40.504Z,13.40
2018-07-15T03:30:08.044Z,13.40
2018-07-15T03:32:35.632Z,13.30
2018-07-15T03:35:04.286Z,13.30
2018-07-15T03:37:31.826Z,13.30
2018-07-15T03:42:26.988Z,13.30
2018-07-15T03:44:54.589Z,13.20
2018-07-15T03:47:22.131Z,13.20
2018-07-15T03:49:49.679Z,13.20
2018-07-15T03:52:17.245Z,13.20
2018-07-15T03:54:44.792Z,13.20
2018-07-15T03:57:12.384Z,13.20
2018-07-15T03:59:43.180Z,13.20
2018-07-15T04:02:10.820Z,13.20
2018-07-15T04:04:38.491Z,13.20
2018-07-15T04:07:06.119Z,13.20
2018-07-15T04:09:33.740Z,13.20
2018-07-15T04:12:01.364Z,13.20
2018-07-15T04:14:28.949Z,13.30
2018-07-15T04:16:56.517Z,13.30
2018-07-15T04:19:24.077Z,13.30
2018-07-15T04:21:51.699Z,13.30
2018-07-15T04:26:46.750Z,13.40
2018-07-15T04:29:14.536Z,13.40
2018-07-15T04:31:42.124Z,13.40
2018-07-15T04:34:09.867Z,13.50
2018-07-15T04:36:37.425Z,13.60
2018-07-15T04:39:06.540Z,13.60
2018-07-15T04:41:34.116Z,13.70
2018-07-15T04:44:01.712Z,13.80
2018-07-15T04:46:29.301Z,13.90
2018-07-15T04:48:56.898Z,14.00
2018-07-15T04:51:24.548Z,14.10
2018-07-15T04:53:52.101Z,14.20
2018-07-15T04:56:19.685Z,14.30
2018-07-15T04:58:53.717Z,14.40
2018-07-15T05:01:21.388Z,14.50
2018-07-15T05:06:17.277Z,14.50
2018-07-15T05:08:44.829Z,14.60
2018-07-15T05:11:12.524Z,14.70
2018-07-15T05:13:40.244Z,14.70
2018-07-15T05:16:07.823Z,14.80
2018-07-15T05:18:35.359Z,14.90
2018-07-15T05:21:03.013Z,15.00
2018-07-15T05:23:30.540Z,15.10
2018-07-15T05:25:58.118Z,15.20
2018-07-15T05:28:25.636Z,15.30
2018-07-15T05:30:53.291Z,15.40
2018-07-15T05:33:20.879Z,15.50
2018-07-15T05:35:48.485Z,15.60
2018-07-15T05:38:16.082Z,15.70
2018-07-15T05:40:43.640Z,15.80
2018-07-15T05:43:11.180Z,15.90
2018-07-15T05:45:38.743Z,16.00
2018-07-15T05:48:06.303Z,16.10
2018-07-15T05:50:33.930Z,16.20
2018-07-15T05:55:29.084Z,16.50
2018-07-15T05:57:56.717Z,16.70
2018-07-15T06:00:24.264Z,16.80
2018-07-15T06:02:52.065Z,17.00
2018-07-15T06:05:19.683Z,17.20
2018-07-15T06:07:47.300Z,17.30
2018-07-15T06:10:14.905Z,17.50
2018-07-15T06:12:42.492Z,17.80
2018-07-15T06:17:37.559Z,18.30
2018-07-15T06:20:06.312Z,18.60
2018-07-15T06:22:33.943Z,18.80
2018-07-15T06:25:01.562Z,19.10
2018-07-15T06:27:29.583Z,19.40
2018-07-15T06:29:57.160Z,19.60
2018-07-15T06:32:24.745Z,19.90
2018-07-15T06:34:52.306Z,20.10
2018-07-15T06:37:19.904Z,20.30
2018-07-15T06:39:47.492Z,20.40
2018-07-15T06:42:15.095Z,20.60
2018-07-15T06:44:42.639Z,20.70
2018-07-15T06:47:10.283Z,20.80
2018-07-15T06:49:37.905Z,20.90
2018-07-15T06:52:05.559Z,21.00
2018-07-15T06:54:33.151Z,21.10
2018-07-15T06:57:00.859Z,21.30
2018-07-15T06:59:28.455Z,21.40
2018-07-15T07:01:56.078Z,21.70
2018-07-15T07:04:23.911Z,21.80
2018-07-15T07:09:20.443Z,22.30
2018-07-15T07:11:48.038Z,22.50
2018-07-15T07:14:15.838Z,22.80
2018-07-15T07:16:43.392Z,23.10
2018-07-15T07:19:10.959Z,23.50
2018-07-15T07:21:38.828Z,23.80
2018-07-15T07:24:06.511Z,24.00
2018-07-15T07:26:34.126Z,24.30
2018-07-15T07:29:01.780Z,24.50
2018-07-15T07:33:57.221Z,25.00
2018-07-15T07:38:52.501Z,25.10
2018-07-15T07:41:20.096Z,25.10
2018-07-15T07:43:49.247Z,25.20
2018-07-15T07:46:20.366Z,25.20
2018-07-15T07:48:51.148Z,25.40
2018-07-15T07:51:35.663Z,25.70
2018-07-15T07:54:03.240Z,26.00
2018-07-15T07:56:51.547Z,26.20
2018-07-15T07:59:19.147Z,26.40
2018-07-15T08:01:46.708Z,26.80
2018-07-15T08:04:14.427Z,27.10
2018-07-15T08:06:41.973Z,27.50
2018-07-15T08:09:09.529Z,27.90
2018-07-15T08:11:47.310Z,28.30
2018-07-15T08:14:14.968Z,28.50
2018-07-15T08:16:42.623Z,28.50
2018-07-15T08:19:10.188Z,28.40
2018-07-15T08:21:41.955Z,28.20
2018-07-15T08:24:09.644Z,28.20
2018-07-15T08:26:37.324Z,28.30
2018-07-15T08:29:04.912Z,28.80
2018-07-15T08:31:32.489Z,29.30
2018-07-15T08:34:00.065Z,29.70
2018-07-15T08:36:37.696Z,29.90
2018-07-15T08:41:34.283Z,30.20
2018-07-15T08:44:01.859Z,30.50
2018-07-15T08:46:29.436Z,30.90
2018-07-15T08:48:57.014Z,31.20
2018-07-15T08:51:24.641Z,31.30
2018-07-15T08:53:52.270Z,31.60
2018-07-15T08:56:19.879Z,31.70
2018-07-15T08:58:47.467Z,31.80
2018-07-15T09:01:15.039Z,31.80
2018-07-15T09:03:42.637Z,31.80
2018-07-15T09:06:10.346Z,31.60
2018-07-15T09:08:38.133Z,31.50
2018-07-15T09:11:05.799Z,31.30
2018-07-15T09:13:33.390Z,31.20
2018-07-15T09:16:01.062Z,31.10
2018-07-15T09:18:28.689Z,31.00
2018-07-15T09:20:56.221Z,30.80
2018-07-15T09:23:23.799Z,30.70
2018-07-15T09:25:51.372Z,30.60
2018-07-15T09:28:18.925Z,30.70
2018-07-15T09:30:46.529Z,31.00
2018-07-15T09:33:14.226Z,31.40
2018-07-15T09:35:41.814Z,31.80
2018-07-15T09:38:09.369Z,31.90
2018-07-15T09:40:37.004Z,32.10
2018-07-15T09:43:04.898Z,32.40
2018-07-15T09:45:32.439Z,32.60
2018-07-15T09:48:00.050Z,32.70
2018-07-15T09:50:27.664Z,32.70
2018-07-15T09:52:55.405Z,32.80
2018-07-15T09:55:22.989Z,33.10
2018-07-15T09:57:50.603Z,33.70
2018-07-15T10:00:23.755Z,34.10
2018-07-15T10:02:52.529Z,34.30
2018-07-15T10:05:20.152Z,34.60
2018-07-15T10:07:47.687Z,34.80
2018-07-15T10:10:15.472Z,35.10
2018-07-15T10:12:43.085Z,35.30
2018-07-15T10:15:10.664Z,35.60
2018-07-15T10:17:38.252Z,35.50
2018-07-15T10:20:05.862Z,35.70
2018-07-15T10:22:33.505Z,35.90
2018-07-15T10:25:01.037Z,36.20
2018-07-15T10:27:28.622Z,36.60
2018-07-15T10:29:56.273Z,36.90
2018-07-15T10:32:23.843Z,36.80
2018-07-15T10:34:51.396Z,36.50
2018-07-15T10:37:18.980Z,36.00
2018-07-15T10:39:46.553Z,35.20
2018-07-15T10:42:14.477Z,34.60
2018-07-15T10:44:42.116Z,33.90
2018-07-15T10:47:09.699Z,33.30
2018-07-15T10:49:37.335Z,32.70
2018-07-15T10:52:05.099Z,32.00
2018-07-15T10:54:32.806Z,31.50
2018-07-15T10:57:00.427Z,30.80
2018-07-15T10:59:28.025Z,30.10
2018-07-15T11:01:55.685Z,29.60
2018-07-15T11:04:23.257Z,29.00
2018-07-15T11:06:51.027Z,28.80
2018-07-15T11:09:18.596Z,28.60
2018-07-15T11:11:46.123Z,28.50
2018-07-15T11:14:13.700Z,28.90
2018-07-15T11:16:41.252Z,29.60
2018-07-15T11:19:08.812Z,30.50
2018-07-15T11:21:36.399Z,31.60
2018-07-15T11:24:03.988Z,32.60
2018-07-15T11:28:59.120Z,34.40
2018-07-15T11:31:26.729Z,34.80
2018-07-15T11:33:54.502Z,35.20
2018-07-15T11:36:22.030Z,35.60
2018-07-15T11:38:49.795Z,35.60
2018-07-15T11:41:17.368Z,35.30
2018-07-15T11:43:44.939Z,35.10
2018-07-15T11:46:12.536Z,34.70
2018-07-15T11:51:07.719Z,34.00
2018-07-15T11:53:35.291Z,34.10
2018-07-15T11:56:02.927Z,33.90
2018-07-15T11:58:30.539Z,33.80
2018-07-15T12:00:58.128Z,33.00
2018-07-15T12:03:25.683Z,32.00
2018-07-15T12:05:53.210Z,32.00
2018-07-15T12:08:20.791Z,31.50
2018-07-15T12:10:48.386Z,30.80
2018-07-15T12:13:16.002Z,30.00
2018-07-15T12:15:43.601Z,29.30
2018-07-15T12:18:11.195Z,28.90
2018-07-15T12:20:38.758Z,28.60
2018-07-15T12:23:06.387Z,28.60
2018-07-15T12:25:33.957Z,28.60
2018-07-15T12:28:01.580Z,28.80
2018-07-15T12:30:29.364Z,28.60
2018-07-15T12:32:56.987Z,28.40
2018-07-15T12:35:24.661Z,28.20
2018-07-15T12:37:52.334Z,27.90
2018-07-15T12:40:23.359Z,27.70
2018-07-15T12:42:50.905Z,27.60
2018-07-15T12:45:18.583Z,27.40
2018-07-15T12:47:46.168Z,27.40
2018-07-15T12:50:13.711Z,27.40
2018-07-15T12:52:41.313Z,27.40
2018-07-15T12:55:08.867Z,27.40
2018-07-15T12:57:36.509Z,27.60
2018-07-15T13:00:04.284Z,27.70
2018-07-15T13:02:32.238Z,27.80
2018-07-15T13:05:00.012Z,27.90
2018-07-15T13:07:27.619Z,28.00
2018-07-15T13:09:55.170Z,27.90
2018-07-15T13:12:22.731Z,27.60
2018-07-15T13:14:50.291Z,27.40
2018-07-15T13:17:17.859Z,27.10
2018-07-15T13:19:45.440Z,26.90
2018-07-15T13:22:13.030Z,26.60
2018-07-15T13:24:40.587Z,26.30
2018-07-15T13:27:08.144Z,25.90
2018-07-15T13:29:37.788Z,25.40
2018-07-15T13:32:05.545Z,24.80
2018-07-15T13:34:33.076Z,24.20
2018-07-15T13:37:00.666Z,23.70
2018-07-15T13:39:28.231Z,23.40
2018-07-15T13:41:55.854Z,22.90
2018-07-15T13:46:50.906Z,22.10
2018-07-15T13:49:18.521Z,21.70
2018-07-15T13:51:46.104Z,21.30
2018-07-15T13:54:13.663Z,20.90
2018-07-15T13:56:41.280Z,20.70
2018-07-15T13:59:08.880Z,20.40
2018-07-15T14:01:36.487Z,20.20
2018-07-15T14:04:04.240Z,20.20
2018-07-15T14:06:31.853Z,20.10
2018-07-15T14:08:59.393Z,20.00
2018-07-15T14:11:27.120Z,19.90
2018-07-15T14:13:54.664Z,19.90
2018-07-15T14:16:22.217Z,19.90
2018-07-15T14:18:49.799Z,19.80
2018-07-15T14:21:17.430Z,19.70
2018-07-15T14:23:45.175Z,19.70
2018-07-15T14:26:12.894Z,19.80
2018-07-15T14:28:40.444Z,19.80
2018-07-15T14:31:08.309Z,19.90
2018-07-15T14:33:36.048Z,19.90
2018-07-15T14:36:03.847Z,20.00
2018-07-15T14:38:31.436Z,20.00
2018-07-15T14:40:59.119Z,20.10
2018-07-15T14:43:26.783Z,20.30
2018-07-15T14:45:54.371Z,20.40
2018-07-15T14:48:21.915Z,20.50
2018-07-15T14:50:49.493Z,20.60
2018-07-15T14:53:17.129Z,20.70
2018-07-15T14:55:44.781Z,20.80
2018-07-15T14:58:12.291Z,21.00
2018-07-15T15:00:39.837Z,21.20
2018-07-15T15:03:07.412Z,21.50
2018-07-15T15:05:34.980Z,21.70
2018-07-15T15:08:02.560Z,21.80
2018-07-15T15:10:30.820Z,22.00
2018-07-15T15:12:58.493Z,22.10
2018-07-15T15:15:26.032Z,22.20
2018-07-15T15:17:53.660Z,22.30
2018-07-15T15:20:21.216Z,22.30
2018-07-15T15:22:48.767Z,22.30
2018-07-15T15:25:16.473Z,22.20
2018-07-15T15:27:44.082Z,22.10
2018-07-15T15:30:11.741Z,22.10
2018-07-15T15:32:39.276Z,22.00
2018-07-15T15:35:06.880Z,22.00
2018-07-15T15:37:34.650Z,22.10
2018-07-15T15:40:02.284Z,22.10
2018-07-15T15:42:29.945Z,22.10
2018-07-15T15:44:57.533Z,22.20
2018-07-15T15:47:25.159Z,22.30
2018-07-15T15:49:52.700Z,22.30
2018-07-15T15:52:20.271Z,22.40
2018-07-15T15:54:47.885Z,22.50
2018-07-15T15:57:15.448Z,22.60
2018-07-15T15:59:43.191Z,22.70
2018-07-15T16:02:10.826Z,22.80
2018-07-15T16:04:38.372Z,22.90
2018-07-15T16:07:06.090Z,22.90
2018-07-15T16:09:33.846Z,23.00
2018-07-15T16:12:01.425Z,23.10
2018-07-15T16:14:28.989Z,23.10
2018-07-15T16:16:56.536Z,23.30
2018-07-15T16:19:24.119Z,23.50
2018-07-15T16:21:52.015Z,23.60
2018-07-15T16:24:19.638Z,23.70
2018-07-15T16:26:47.305Z,23.70
2018-07-15T16:29:18.113Z,23.70
2018-07-15T16:31:45.670Z,23.80
2018-07-15T16:34:13.260Z,23.90
2018-07-15T16:36:44.765Z,24.00
2018-07-15T16:39:12.364Z,24.10
2018-07-15T16:41:39.960Z,24.10
2018-07-15T16:44:07.526Z,24.10
2018-07-15T16:46:35.160Z,24.00
2018-07-15T16:49:02.827Z,24.00
2018-07-15T16:51:30.515Z,24.00
2018-07-15T16:56:25.877Z,24.10
2018-07-15T16:58:53.574Z,24.10
2018-07-15T17:01:21.159Z,24.00
2018-07-15T17:06:16.279Z,23.90
2018-07-15T17:08:45.868Z,23.80
2018-07-15T17:13:41.037Z,23.80
2018-07-15T17:16:08.576Z,23.80
2018-07-15T17:18:36.214Z,23.90
2018-07-15T17:21:03.781Z,23.90
2018-07-15T17:23:31.317Z,23.90
2018-07-15T17:25:58.911Z,23.90
2018-07-15T17:28:26.539Z,23.70
2018-07-15T17:30:54.159Z,23.60
2018-07-15T17:33:21.785Z,23.50
2018-07-15T17:35:49.378Z,23.30
2018-07-15T17:38:17.794Z,23.10
2018-07-15T17:40:45.345Z,22.90
2018-07-15T17:43:12.943Z,22.70
2018-07-15T17:45:41.520Z,22.60
2018-07-15T17:48:09.093Z,22.50
2018-07-15T17:50:36.632Z,22.30
2018-07-15T17:53:04.302Z,22.30
2018-07-15T17:55:31.859Z,22.20
2018-07-15T17:57:59.407Z,22.20
2018-07-15T18:00:27.109Z,22.10
2018-07-15T18:02:54.744Z,22.10
2018-07-15T18:05:22.280Z,22.10
2018-07-15T18:07:50.038Z,22.00
2018-07-15T18:10:17.743Z,21.90
2018-07-15T18:12:45.303Z,21.90
2018-07-15T18:17:40.573Z,21.80
2018-07-15T18:20:08.351Z,21.70
2018-07-15T18:22:35.983Z,21.70
2018-07-15T18:25:03.552Z,21.60
2018-07-15T18:27:31.319Z,21.50
2018-07-15T18:29:58.907Z,21.40
2018-07-15T18:32:26.498Z,21.30
2018-07-15T18:34:54.156Z,21.20
2018-07-15T18:37:21.761Z,21.10
2018-07-15T18:39:49.353Z,21.00
2018-07-15T18:42:16.900Z,20.80
2018-07-15T18:44:44.463Z,20.70
2018-07-15T18:47:12.059Z,20.60
2018-07-15T18:49:39.653Z,20.40
2018-07-15T18:52:07.323Z,20.30
2018-07-15T18:54:35.567Z,20.10
2018-07-15T18:57:07.071Z,19.90
2018-07-15T18:59:34.720Z,19.70
2018-07-15T19:02:02.323Z,19.60
2018-07-15T19:04:29.979Z,19.50
2018-07-15T19:06:57.638Z,19.40
2018-07-15T19:09:25.213Z,19.20
2018-07-15T19:11:52.848Z,19.10
2018-07-15T19:14:20.664Z,19.00
2018-07-15T19:16:48.302Z,18.90
2018-07-15T19:19:15.983Z,18.80
2018-07-15T19:21:43.656Z,18.60
2018-07-15T19:24:11.270Z,18.60
2018-07-15T19:26:38.876Z,18.50
2018-07-15T19:29:06.495Z,18.40
2018-07-15T19:31:34.342Z,18.30
2018-07-15T19:34:01.917Z,18.20
2018-07-15T19:36:29.667Z,18.10
2018-07-15T19:38:57.330Z,18.10
2018-07-15T19:41:28.154Z,18.00
2018-07-15T19:43:57.344Z,17.90
2018-07-15T19:46:24.938Z,17.90
2018-07-15T19:48:52.503Z,17.90
2018-07-15T19:51:20.091Z,17.80
2018-07-15T19:53:59.350Z,17.80
2018-07-15T19:56:26.944Z,17.80
2018-07-15T19:58:54.709Z,17.70
2018-07-15T20:01:22.560Z,17.70
2018-07-15T20:03:50.141Z,17.70
2018-07-15T20:06:17.739Z,17.70
2018-07-15T20:08:45.415Z,17.70
2018-07-15T20:11:13.004Z,17.70
2018-07-15T20:13:40.622Z,17.70
2018-07-15T20:16:08.213Z,17.60
2018-07-15T20:18:35.821Z,17.60
2018-07-15T20:23:30.957Z,17.40
2018-07-15T20:25:58.681Z,17.40
2018-07-15T20:28:26.255Z,17.30
2018-07-15T20:30:54.174Z,17.30
2018-07-15T20:33:22.089Z,17.20
2018-07-15T20:35:49.762Z,17.10
2018-07-15T20:38:17.476Z,17.10
2018-07-15T20:40:45.139Z,17.10
2018-07-15T20:43:12.671Z,17.00
2018-07-15T20:45:41.111Z,16.90
2018-07-15T20:48:08.927Z,16.80
2018-07-15T20:50:36.549Z,16.70
2018-07-15T20:53:04.193Z,16.70
2018-07-15T20:55:31.756Z,16.70
2018-07-15T20:57:59.296Z,16.70
2018-07-15T21:00:26.892Z,16.70
2018-07-15T21:02:54.465Z,16.60
2018-07-15T21:05:22.058Z,16.50
2018-07-15T21:07:49.648Z,16.50
2018-07-15T21:10:17.242Z,16.40
2018-07-15T21:12:44.852Z,16.40
2018-07-15T21:15:12.455Z,16.40
2018-07-15T21:17:40.040Z,16.40
2018-07-15T21:20:07.727Z,16.30
2018-07-15T21:22:35.395Z,16.30
2018-07-15T21:25:03.083Z,16.30
2018-07-15T21:27:30.667Z,16.30
2018-07-15T21:29:58.234Z,16.30
2018-07-15T21:32:25.789Z,16.20
2018-07-15T21:34:54.779Z,16.20
2018-07-15T21:37:22.427Z,16.20
2018-07-15T21:39:50.034Z,16.10
2018-07-15T21:42:17.821Z,16.00
2018-07-15T21:44:45.585Z,16.00
2018-07-15T21:47:13.184Z,16.00
2018-07-15T21:49:40.751Z,15.90
2018-07-15T21:52:08.332Z,15.80
2018-07-15T21:54:35.941Z,15.80
2018-07-15T21:57:03.496Z,15.70
2018-07-15T21:59:31.063Z,15.70
2018-07-15T22:01:58.642Z,15.60
2018-07-15T22:04:26.236Z,15.60
2018-07-15T22:07:05.366Z,15.60
2018-07-15T22:09:56.367Z,15.60
2018-07-15T22:12:24.096Z,15.50
2018-07-15T22:14:51.849Z,15.50
2018-07-15T22:17:19.593Z,15.40
2018-07-15T22:19:47.192Z,15.40
2018-07-15T22:22:17.115Z,15.40
2018-07-15T22:24:44.680Z,15.40
2018-07-15T22:27:12.275Z,15.40
2018-07-15T22:29:39.897Z,15.50
2018-07-15T22:32:07.433Z,15.40
2018-07-15T22:34:35.290Z,15.40
2018-07-15T22:37:02.945Z,15.40
2018-07-15T22:39:30.530Z,15.40
2018-07-15T22:41:58.147Z,15.40
2018-07-15T22:44:25.694Z,15.40
2018-07-15T22:46:53.290Z,15.50
2018-07-15T22:49:20.859Z,15.40
2018-07-15T22:51:48.464Z,15.40
2018-07-15T22:54:16.093Z,15.40
2018-07-15T22:56:43.709Z,15.50
2018-07-15T22:59:11.286Z,15.50
2018-07-15T23:04:06.507Z,15.50
2018-07-15T23:06:36.409Z,15.50
2018-07-15T23:09:04.839Z,15.50
2018-07-15T23:11:32.540Z,15.50
2018-07-15T23:14:00.132Z,15.50
2018-07-15T23:16:28.812Z,15.50
2018-07-15T23:18:56.410Z,15.50
2018-07-15T23:21:24.017Z,15.50
2018-07-15T23:26:19.961Z,15.50
2018-07-15T23:28:47.576Z,15.50
2018-07-15T23:31:15.214Z,15.50
2018-07-15T23:38:37.827Z,15.40
2018-07-15T23:41:05.836Z,15.40
2018-07-15T23:43:33.448Z,15.40
2018-07-15T23:46:01.075Z,15.40
2018-07-15T23:48:28.624Z,15.40
2018-07-15T23:50:56.219Z,15.40
2018-07-15T23:53:23.808Z,15.40
2018-07-15T23:55:51.444Z,15.40
2018-07-15T23:58:19.028Z,15.40
